Bluffton, MN

2:15 AM CST on November 24, 2014 (GMT -0600)
Wadena Municipal | Change Station
CLOSE
Current Station
Airport
Location: Wadena,
Elevation: 1371 ft
Nearby Weather Stations
Active Advisory: Freezing Rain Advisory

Elev 1371 ft 46.45 °N, 95.21 °W | Updated 23 minutes ago

Overcast
Overcast
18 °F
Feels Like 3 °F
N
16
Wind Variable Wind from NW
Gusts 23 mph

Today
High -- | Low -- °F
--% Chance of Precip.
Yesterday
High -- | Low -- °F
Precip. -- in
7:35 AM 4:39 PM
Waxing Crescent, 4% visible
Pressure 29.42 in
Visibility 10.0 miles
Clouds Overcast 1100 ft
Windchill 3 °F
Dew Point 14 °F
Humidity 86%
Rainfall 0.00 in
Snow Depth Not available.
UV 0 out of 12
Pollen .10 out of 12
Air Quality Not available.
Flu Activity Not available.
METAR KADC 240752Z AUTO 32014G20KT 10SM OVC011 M08/M10 A2942 RMK AO2

More Conditions Fewer Conditions

Pressure 29.42 in
Visibility 10.0 miles
Clouds Overcast 1100 ft
Windchill 3 °F
Dew Point 14 °F
Humidity 86%
Rainfall 0.00 in
Snow Depth Not available.
UV 0 out of 12
Pollen .10 out of 12
Air Quality Not available.
Flu Activity Not available.
METAR KADC 240752Z AUTO 32014G20KT 10SM OVC011 M08/M10 A2942 RMK AO2

More Conditions Fewer Conditions

10-Day Weather Forecast

Almanac

Astronomy

Nov. 24, 2014 Rise Set
Actual Time
Civil Twilight
Nautical Twilight
Astronomical Twilight
Moon
Length of Visible Light
Length of Day
Tomorrow will be .
, % of the Moon is Illuminated

Today's Extremes

State Highs State Lows

Community

WunderPhotos

Upload Photos

1,773,295 photos uploaded!

WunderBlogs® & News

Nearby

Air Quality

  Air Quality AQ Index Pollutant
Not available.

Snow Depth

Station Depth Elevation

Earthquake Activity

City Distance Mag. Time & Date
Minimum magnitude displayed is 2.5.

Coastal Water Temperatures

Place Temperature

Nearby Weather Stations